sensor_id;sensor_type;location;lat;lon;timestamp;P1;durP1;ratioP1;P2;durP2;ratioP2
12816;SDS011;6473;51.552;6.716;2024-01-07T00:02:07;18.07;;;10.63;;
12816;SDS011;6473;51.552;6.716;2024-01-07T00:04:35;16.33;;;10.13;;
12816;SDS011;6473;51.552;6.716;2024-01-07T00:07:03;18.47;;;10.60;;
12816;SDS011;6473;51.552;6.716;2024-01-07T00:09:30;17.27;;;9.53;;
12816;SDS011;6473;51.552;6.716;2024-01-07T00:11:58;17.90;;;9.87;;
12816;SDS011;6473;51.552;6.716;2024-01-07T00:14:25;15.90;;;9.80;;
12816;SDS011;6473;51.552;6.716;2024-01-07T00:16:52;15.37;;;9.37;;
12816;SDS011;6473;51.552;6.716;2024-01-07T00:19:19;16.20;;;9.13;;
12816;SDS011;6473;51.552;6.716;2024-01-07T00:21:47;13.83;;;8.60;;
12816;SDS011;6473;51.552;6.716;2024-01-07T00:24:15;14.90;;;9.03;;
12816;SDS011;6473;51.552;6.716;2024-01-07T00:26:42;16.07;;;10.30;;
12816;SDS011;6473;51.552;6.716;2024-01-07T00:29:09;13.83;;;8.40;;
12816;SDS011;6473;51.552;6.716;2024-01-07T00:31:36;16.20;;;9.93;;
12816;SDS011;6473;51.552;6.716;2024-01-07T00:34:03;13.97;;;8.80;;
12816;SDS011;6473;51.552;6.716;2024-01-07T00:36:30;12.60;;;8.60;;
12816;SDS011;6473;51.552;6.716;2024-01-07T00:38:59;15.73;;;9.07;;
12816;SDS011;6473;51.552;6.716;2024-01-07T00:41:26;13.73;;;8.63;;
12816;SDS011;6473;51.552;6.716;2024-01-07T00:43:55;15.53;;;9.87;;
12816;SDS011;6473;51.552;6.716;2024-01-07T00:46:22;12.90;;;8.00;;
12816;SDS011;6473;51.552;6.716;2024-01-07T00:48:49;12.17;;;7.57;;
12816;SDS011;6473;51.552;6.716;2024-01-07T00:51:16;11.37;;;7.17;;
12816;SDS011;6473;51.552;6.716;2024-01-07T00:53:44;12.33;;;7.43;;
12816;SDS011;6473;51.552;6.716;2024-01-07T00:56:12;11.33;;;8.17;;
12816;SDS011;6473;51.552;6.716;2024-01-07T00:58:39;11.57;;;8.00;;
12816;SDS011;6473;51.552;6.716;2024-01-07T01:01:06;12.17;;;7.70;;
12816;SDS011;6473;51.552;6.716;2024-01-07T01:03:39;10.17;;;7.23;;
12816;SDS011;6473;51.552;6.716;2024-01-07T01:06:07;10.50;;;7.33;;
12816;SDS011;6473;51.552;6.716;2024-01-07T01:08:34;9.93;;;6.97;;
12816;SDS011;6473;51.552;6.716;2024-01-07T01:11:01;13.20;;;7.40;;
12816;SDS011;6473;51.552;6.716;2024-01-07T01:13:30;10.03;;;7.43;;
12816;SDS011;6473;51.552;6.716;2024-01-07T01:15:57;11.30;;;7.03;;
12816;SDS011;6473;51.552;6.716;2024-01-07T01:18:24;11.03;;;7.87;;
12816;SDS011;6473;51.552;6.716;2024-01-07T01:20:55;9.50;;;6.90;;
12816;SDS011;6473;51.552;6.716;2024-01-07T01:23:22;12.33;;;7.40;;
12816;SDS011;6473;51.552;6.716;2024-01-07T01:25:49;10.87;;;6.70;;
12816;SDS011;6473;51.552;6.716;2024-01-07T01:28:17;11.43;;;7.53;;
12816;SDS011;6473;51.552;6.716;2024-01-07T01:30:45;10.93;;;7.43;;
12816;SDS011;6473;51.552;6.716;2024-01-07T01:33:12;9.87;;;6.80;;
12816;SDS011;6473;51.552;6.716;2024-01-07T01:35:39;11.00;;;7.53;;
12816;SDS011;6473;51.552;6.716;2024-01-07T01:38:07;11.43;;;8.03;;
12816;SDS011;6473;51.552;6.716;2024-01-07T01:40:34;12.03;;;7.90;;
12816;SDS011;6473;51.552;6.716;2024-01-07T01:43:01;13.50;;;7.87;;
12816;SDS011;6473;51.552;6.716;2024-01-07T01:45:28;12.83;;;7.90;;
12816;SDS011;6473;51.552;6.716;2024-01-07T01:47:57;14.97;;;9.20;;
12816;SDS011;6473;51.552;6.716;2024-01-07T01:50:24;15.90;;;9.73;;
12816;SDS011;6473;51.552;6.716;2024-01-07T01:52:52;15.63;;;8.93;;
12816;SDS011;6473;51.552;6.716;2024-01-07T01:55:21;12.57;;;8.53;;
12816;SDS011;6473;51.552;6.716;2024-01-07T01:57:48;14.90;;;9.70;;
12816;SDS011;6473;51.552;6.716;2024-01-07T02:00:18;17.93;;;9.83;;
12816;SDS011;6473;51.552;6.716;2024-01-07T02:02:45;15.97;;;9.70;;
12816;SDS011;6473;51.552;6.716;2024-01-07T02:05:14;17.10;;;10.77;;
12816;SDS011;6473;51.552;6.716;2024-01-07T02:07:41;15.23;;;9.40;;
12816;SDS011;6473;51.552;6.716;2024-01-07T02:10:08;15.97;;;9.93;;
12816;SDS011;6473;51.552;6.716;2024-01-07T02:12:36;15.17;;;10.37;;
12816;SDS011;6473;51.552;6.716;2024-01-07T02:15:04;15.67;;;9.43;;
12816;SDS011;6473;51.552;6.716;2024-01-07T02:17:32;17.43;;;10.00;;
12816;SDS011;6473;51.552;6.716;2024-01-07T02:19:59;15.57;;;9.57;;
12816;SDS011;6473;51.552;6.716;2024-01-07T02:22:28;17.63;;;10.13;;
12816;SDS011;6473;51.552;6.716;2024-01-07T02:24:56;17.90;;;10.43;;
12816;SDS011;6473;51.552;6.716;2024-01-07T02:27:24;14.77;;;9.73;;
12816;SDS011;6473;51.552;6.716;2024-01-07T02:29:51;16.70;;;9.93;;
12816;SDS011;6473;51.552;6.716;2024-01-07T02:32:18;17.23;;;10.93;;
12816;SDS011;6473;51.552;6.716;2024-01-07T02:34:46;16.97;;;9.70;;
12816;SDS011;6473;51.552;6.716;2024-01-07T02:37:13;17.67;;;10.67;;
12816;SDS011;6473;51.552;6.716;2024-01-07T02:39:40;19.00;;;10.80;;
12816;SDS011;6473;51.552;6.716;2024-01-07T02:42:09;19.30;;;11.37;;
12816;SDS011;6473;51.552;6.716;2024-01-07T02:44:37;18.73;;;11.30;;
12816;SDS011;6473;51.552;6.716;2024-01-07T02:47:04;18.03;;;10.63;;
12816;SDS011;6473;51.552;6.716;2024-01-07T02:49:31;16.47;;;10.07;;
12816;SDS011;6473;51.552;6.716;2024-01-07T02:51:58;18.07;;;11.73;;
12816;SDS011;6473;51.552;6.716;2024-01-07T02:54:26;18.67;;;11.23;;
12816;SDS011;6473;51.552;6.716;2024-01-07T02:56:53;17.57;;;10.47;;
12816;SDS011;6473;51.552;6.716;2024-01-07T02:59:21;16.27;;;10.60;;
12816;SDS011;6473;51.552;6.716;2024-01-07T03:01:48;16.77;;;10.47;;
12816;SDS011;6473;51.552;6.716;2024-01-07T03:04:16;16.63;;;11.27;;
12816;SDS011;6473;51.552;6.716;2024-01-07T03:06:43;15.80;;;10.13;;
12816;SDS011;6473;51.552;6.716;2024-01-07T03:09:10;16.60;;;9.97;;
12816;SDS011;6473;51.552;6.716;2024-01-07T03:11:38;16.97;;;10.53;;
12816;SDS011;6473;51.552;6.716;2024-01-07T03:14:06;18.27;;;10.37;;
12816;SDS011;6473;51.552;6.716;2024-01-07T03:16:35;14.70;;;10.00;;
12816;SDS011;6473;51.552;6.716;2024-01-07T03:19:02;17.77;;;10.97;;
12816;SDS011;6473;51.552;6.716;2024-01-07T03:21:29;15.67;;;10.80;;
12816;SDS011;6473;51.552;6.716;2024-01-07T03:23:56;15.50;;;10.07;;
12816;SDS011;6473;51.552;6.716;2024-01-07T03:26:24;17.43;;;10.23;;
12816;SDS011;6473;51.552;6.716;2024-01-07T03:28:51;15.50;;;10.70;;
12816;SDS011;6473;51.552;6.716;2024-01-07T03:31:19;17.00;;;10.37;;
12816;SDS011;6473;51.552;6.716;2024-01-07T03:33:49;16.83;;;9.97;;
12816;SDS011;6473;51.552;6.716;2024-01-07T03:36:17;14.70;;;9.40;;
12816;SDS011;6473;51.552;6.716;2024-01-07T03:38:44;15.23;;;9.50;;
12816;SDS011;6473;51.552;6.716;2024-01-07T03:41:15;16.53;;;9.40;;
12816;SDS011;6473;51.552;6.716;2024-01-07T03:43:42;14.27;;;9.60;;
12816;SDS011;6473;51.552;6.716;2024-01-07T03:46:10;14.40;;;9.63;;
12816;SDS011;6473;51.552;6.716;2024-01-07T03:48:37;13.20;;;9.53;;
12816;SDS011;6473;51.552;6.716;2024-01-07T03:51:06;13.10;;;9.67;;
12816;SDS011;6473;51.552;6.716;2024-01-07T03:53:32;12.60;;;8.80;;
12816;SDS011;6473;51.552;6.716;2024-01-07T03:56:00;12.03;;;8.50;;
12816;SDS011;6473;51.552;6.716;2024-01-07T03:58:27;12.33;;;8.33;;
12816;SDS011;6473;51.552;6.716;2024-01-07T04:00:54;12.73;;;8.17;;
12816;SDS011;6473;51.552;6.716;2024-01-07T04:03:21;11.30;;;7.67;;
12816;SDS011;6473;51.552;6.716;2024-01-07T04:05:48;13.67;;;8.80;;
12816;SDS011;6473;51.552;6.716;2024-01-07T04:08:17;11.77;;;7.77;;
12816;SDS011;6473;51.552;6.716;2024-01-07T04:10:44;11.77;;;8.73;;
12816;SDS011;6473;51.552;6.716;2024-01-07T04:13:11;11.03;;;7.63;;
12816;SDS011;6473;51.552;6.716;2024-01-07T04:15:38;11.27;;;7.67;;
12816;SDS011;6473;51.552;6.716;2024-01-07T04:18:05;10.30;;;7.80;;
12816;SDS011;6473;51.552;6.716;2024-01-07T04:20:33;10.17;;;7.93;;
12816;SDS011;6473;51.552;6.716;2024-01-07T04:23:00;12.93;;;8.63;;
12816;SDS011;6473;51.552;6.716;2024-01-07T04:25:28;11.93;;;8.43;;
12816;SDS011;6473;51.552;6.716;2024-01-07T04:27:55;10.93;;;8.63;;
12816;SDS011;6473;51.552;6.716;2024-01-07T04:30:23;11.93;;;8.10;;
12816;SDS011;6473;51.552;6.716;2024-01-07T04:32:50;11.47;;;8.57;;
12816;SDS011;6473;51.552;6.716;2024-01-07T04:35:17;13.33;;;9.23;;
12816;SDS011;6473;51.552;6.716;2024-01-07T04:37:44;12.27;;;8.07;;
12816;SDS011;6473;51.552;6.716;2024-01-07T04:40:11;13.70;;;9.07;;
12816;SDS011;6473;51.552;6.716;2024-01-07T04:42:40;14.00;;;9.07;;
12816;SDS011;6473;51.552;6.716;2024-01-07T04:45:07;14.77;;;9.30;;
12816;SDS011;6473;51.552;6.716;2024-01-07T04:47:34;13.07;;;8.83;;
12816;SDS011;6473;51.552;6.716;2024-01-07T04:50:02;12.73;;;9.00;;
12816;SDS011;6473;51.552;6.716;2024-01-07T04:52:29;12.87;;;8.97;;
12816;SDS011;6473;51.552;6.716;2024-01-07T04:54:56;13.00;;;8.83;;
12816;SDS011;6473;51.552;6.716;2024-01-07T04:57:23;11.70;;;8.37;;
12816;SDS011;6473;51.552;6.716;2024-01-07T04:59:52;12.53;;;8.47;;
12816;SDS011;6473;51.552;6.716;2024-01-07T05:02:19;11.73;;;8.40;;
12816;SDS011;6473;51.552;6.716;2024-01-07T05:04:46;15.13;;;8.33;;
12816;SDS011;6473;51.552;6.716;2024-01-07T05:07:14;13.83;;;8.40;;
12816;SDS011;6473;51.552;6.716;2024-01-07T05:09:41;10.97;;;7.73;;
12816;SDS011;6473;51.552;6.716;2024-01-07T05:12:08;10.77;;;7.60;;
12816;SDS011;6473;51.552;6.716;2024-01-07T05:14:35;11.00;;;8.17;;
12816;SDS011;6473;51.552;6.716;2024-01-07T05:17:04;10.30;;;7.87;;
12816;SDS011;6473;51.552;6.716;2024-01-07T05:19:31;11.83;;;7.90;;
12816;SDS011;6473;51.552;6.716;2024-01-07T05:21:58;10.33;;;7.53;;
12816;SDS011;6473;51.552;6.716;2024-01-07T05:24:25;11.23;;;7.17;;
12816;SDS011;6473;51.552;6.716;2024-01-07T05:26:53;10.83;;;7.40;;
12816;SDS011;6473;51.552;6.716;2024-01-07T05:29:20;10.03;;;7.23;;
12816;SDS011;6473;51.552;6.716;2024-01-07T05:31:48;9.20;;;6.20;;
12816;SDS011;6473;51.552;6.716;2024-01-07T05:34:16;9.20;;;6.73;;
12816;SDS011;6473;51.552;6.716;2024-01-07T05:36:43;12.30;;;7.53;;
12816;SDS011;6473;51.552;6.716;2024-01-07T05:39:10;10.80;;;6.47;;
12816;SDS011;6473;51.552;6.716;2024-01-07T05:41:37;8.70;;;6.50;;
12816;SDS011;6473;51.552;6.716;2024-01-07T05:44:06;10.70;;;6.53;;
12816;SDS011;6473;51.552;6.716;2024-01-07T05:46:34;10.77;;;6.57;;
12816;SDS011;6473;51.552;6.716;2024-01-07T05:49:01;11.37;;;7.27;;
12816;SDS011;6473;51.552;6.716;2024-01-07T05:51:29;10.87;;;7.37;;
12816;SDS011;6473;51.552;6.716;2024-01-07T05:53:56;12.47;;;7.20;;
12816;SDS011;6473;51.552;6.716;2024-01-07T05:56:23;8.43;;;6.80;;
12816;SDS011;6473;51.552;6.716;2024-01-07T05:58:51;9.73;;;7.50;;
12816;SDS011;6473;51.552;6.716;2024-01-07T06:01:18;11.20;;;8.27;;
12816;SDS011;6473;51.552;6.716;2024-01-07T06:03:46;10.73;;;8.10;;
12816;SDS011;6473;51.552;6.716;2024-01-07T06:06:13;12.10;;;8.50;;
12816;SDS011;6473;51.552;6.716;2024-01-07T06:08:43;11.00;;;7.80;;
12816;SDS011;6473;51.552;6.716;2024-01-07T06:11:10;12.90;;;8.77;;
12816;SDS011;6473;51.552;6.716;2024-01-07T06:13:43;14.37;;;8.80;;
12816;SDS011;6473;51.552;6.716;2024-01-07T06:16:10;13.23;;;9.20;;
12816;SDS011;6473;51.552;6.716;2024-01-07T06:18:38;13.27;;;8.47;;
12816;SDS011;6473;51.552;6.716;2024-01-07T06:21:05;15.27;;;9.37;;
12816;SDS011;6473;51.552;6.716;2024-01-07T06:23:32;13.57;;;9.43;;
12816;SDS011;6473;51.552;6.716;2024-01-07T06:26:04;14.63;;;9.23;;
12816;SDS011;6473;51.552;6.716;2024-01-07T06:28:31;12.57;;;8.43;;
12816;SDS011;6473;51.552;6.716;2024-01-07T06:30:58;12.13;;;8.47;;
12816;SDS011;6473;51.552;6.716;2024-01-07T06:33:25;15.03;;;8.63;;
12816;SDS011;6473;51.552;6.716;2024-01-07T06:35:52;12.70;;;7.77;;
12816;SDS011;6473;51.552;6.716;2024-01-07T06:38:19;13.90;;;9.23;;
12816;SDS011;6473;51.552;6.716;2024-01-07T06:40:47;13.80;;;9.60;;
12816;SDS011;6473;51.552;6.716;2024-01-07T06:43:15;13.00;;;8.17;;
12816;SDS011;6473;51.552;6.716;2024-01-07T06:45:42;11.40;;;8.50;;
12816;SDS011;6473;51.552;6.716;2024-01-07T06:48:10;15.10;;;9.20;;
12816;SDS011;6473;51.552;6.716;2024-01-07T06:50:37;13.47;;;8.90;;
12816;SDS011;6473;51.552;6.716;2024-01-07T06:53:04;12.87;;;8.77;;
12816;SDS011;6473;51.552;6.716;2024-01-07T06:55:31;13.97;;;8.27;;
12816;SDS011;6473;51.552;6.716;2024-01-07T06:57:58;11.77;;;8.60;;
12816;SDS011;6473;51.552;6.716;2024-01-07T07:00:27;13.47;;;8.63;;
12816;SDS011;6473;51.552;6.716;2024-01-07T07:02:54;10.90;;;7.90;;
12816;SDS011;6473;51.552;6.716;2024-01-07T07:05:21;13.43;;;8.50;;
12816;SDS011;6473;51.552;6.716;2024-01-07T07:07:48;13.37;;;8.23;;
12816;SDS011;6473;51.552;6.716;2024-01-07T07:10:15;11.30;;;7.83;;
12816;SDS011;6473;51.552;6.716;2024-01-07T07:12:42;13.40;;;7.97;;
12816;SDS011;6473;51.552;6.716;2024-01-07T07:15:10;12.33;;;8.07;;
12816;SDS011;6473;51.552;6.716;2024-01-07T07:17:39;11.53;;;7.43;;
12816;SDS011;6473;51.552;6.716;2024-01-07T07:20:07;12.67;;;9.07;;
12816;SDS011;6473;51.552;6.716;2024-01-07T07:22:34;11.30;;;7.77;;
12816;SDS011;6473;51.552;6.716;2024-01-07T07:25:01;11.23;;;7.67;;
12816;SDS011;6473;51.552;6.716;2024-01-07T07:27:28;12.80;;;8.13;;
12816;SDS011;6473;51.552;6.716;2024-01-07T07:29:55;11.93;;;7.57;;
12816;SDS011;6473;51.552;6.716;2024-01-07T07:32:23;12.10;;;7.23;;
12816;SDS011;6473;51.552;6.716;2024-01-07T07:34:51;11.40;;;7.40;;
12816;SDS011;6473;51.552;6.716;2024-01-07T07:37:18;11.67;;;7.97;;
12816;SDS011;6473;51.552;6.716;2024-01-07T07:39:45;9.70;;;7.30;;
12816;SDS011;6473;51.552;6.716;2024-01-07T07:42:12;9.93;;;7.40;;
12816;SDS011;6473;51.552;6.716;2024-01-07T07:44:40;9.90;;;6.93;;
12816;SDS011;6473;51.552;6.716;2024-01-07T07:47:07;10.37;;;7.07;;
12816;SDS011;6473;51.552;6.716;2024-01-07T07:49:36;8.77;;;6.50;;
12816;SDS011;6473;51.552;6.716;2024-01-07T07:52:06;8.73;;;7.23;;
12816;SDS011;6473;51.552;6.716;2024-01-07T07:54:34;11.00;;;7.97;;
12816;SDS011;6473;51.552;6.716;2024-01-07T07:57:01;9.83;;;7.70;;
12816;SDS011;6473;51.552;6.716;2024-01-07T07:59:28;11.60;;;7.50;;
12816;SDS011;6473;51.552;6.716;2024-01-07T08:01:55;10.43;;;7.60;;
12816;SDS011;6473;51.552;6.716;2024-01-07T08:04:24;11.63;;;8.00;;
12816;SDS011;6473;51.552;6.716;2024-01-07T08:06:51;11.00;;;7.33;;
12816;SDS011;6473;51.552;6.716;2024-01-07T08:09:22;12.50;;;8.17;;
12816;SDS011;6473;51.552;6.716;2024-01-07T08:11:50;9.87;;;7.07;;
12816;SDS011;6473;51.552;6.716;2024-01-07T08:14:17;12.13;;;7.13;;
12816;SDS011;6473;51.552;6.716;2024-01-07T08:16:44;11.07;;;7.87;;
12816;SDS011;6473;51.552;6.716;2024-01-07T08:19:11;11.10;;;8.03;;
12816;SDS011;6473;51.552;6.716;2024-01-07T08:21:38;10.03;;;7.53;;
12816;SDS011;6473;51.552;6.716;2024-01-07T08:24:06;8.93;;;7.47;;
12816;SDS011;6473;51.552;6.716;2024-01-07T08:26:34;9.23;;;6.80;;
12816;SDS011;6473;51.552;6.716;2024-01-07T08:29:01;9.63;;;7.27;;
12816;SDS011;6473;51.552;6.716;2024-01-07T08:31:28;10.37;;;7.27;;
12816;SDS011;6473;51.552;6.716;2024-01-07T08:33:55;12.73;;;7.40;;
12816;SDS011;6473;51.552;6.716;2024-01-07T08:36:22;10.93;;;8.20;;
12816;SDS011;6473;51.552;6.716;2024-01-07T08:38:49;12.00;;;7.50;;
12816;SDS011;6473;51.552;6.716;2024-01-07T08:41:17;11.43;;;7.67;;
12816;SDS011;6473;51.552;6.716;2024-01-07T08:43:46;10.27;;;7.63;;
12816;SDS011;6473;51.552;6.716;2024-01-07T08:46:13;10.10;;;7.03;;
12816;SDS011;6473;51.552;6.716;2024-01-07T08:48:40;9.80;;;7.40;;
12816;SDS011;6473;51.552;6.716;2024-01-07T08:51:07;11.13;;;7.17;;
12816;SDS011;6473;51.552;6.716;2024-01-07T08:53:34;10.33;;;6.80;;
12816;SDS011;6473;51.552;6.716;2024-01-07T08:56:01;10.33;;;7.37;;
12816;SDS011;6473;51.552;6.716;2024-01-07T08:58:28;9.07;;;6.90;;
12816;SDS011;6473;51.552;6.716;2024-01-07T09:00:57;10.00;;;6.47;;
12816;SDS011;6473;51.552;6.716;2024-01-07T09:03:24;9.50;;;6.47;;
12816;SDS011;6473;51.552;6.716;2024-01-07T09:05:51;10.27;;;7.07;;
12816;SDS011;6473;51.552;6.716;2024-01-07T09:08:19;11.33;;;6.63;;
12816;SDS011;6473;51.552;6.716;2024-01-07T09:10:46;9.07;;;6.73;;
12816;SDS011;6473;51.552;6.716;2024-01-07T09:13:13;9.13;;;6.60;;
12816;SDS011;6473;51.552;6.716;2024-01-07T09:15:40;9.60;;;6.40;;
12816;SDS011;6473;51.552;6.716;2024-01-07T09:18:09;9.97;;;6.60;;
12816;SDS011;6473;51.552;6.716;2024-01-07T09:20:35;8.43;;;6.30;;
12816;SDS011;6473;51.552;6.716;2024-01-07T09:23:03;8.07;;;6.53;;
12816;SDS011;6473;51.552;6.716;2024-01-07T09:25:30;8.17;;;6.47;;
12816;SDS011;6473;51.552;6.716;2024-01-07T09:27:57;7.23;;;6.00;;
12816;SDS011;6473;51.552;6.716;2024-01-07T09:30:24;8.70;;;6.07;;
12816;SDS011;6473;51.552;6.716;2024-01-07T09:32:51;7.67;;;5.80;;
12816;SDS011;6473;51.552;6.716;2024-01-07T09:35:20;7.67;;;6.13;;
12816;SDS011;6473;51.552;6.716;2024-01-07T09:37:47;8.27;;;5.80;;
12816;SDS011;6473;51.552;6.716;2024-01-07T09:40:16;7.27;;;6.03;;
12816;SDS011;6473;51.552;6.716;2024-01-07T09:42:44;7.53;;;5.70;;
12816;SDS011;6473;51.552;6.716;2024-01-07T09:45:12;6.87;;;5.73;;
12816;SDS011;6473;51.552;6.716;2024-01-07T09:47:39;7.13;;;5.30;;
12816;SDS011;6473;51.552;6.716;2024-01-07T09:50:09;7.93;;;5.77;;
12816;SDS011;6473;51.552;6.716;2024-01-07T09:52:38;6.50;;;5.50;;
12816;SDS011;6473;51.552;6.716;2024-01-07T09:55:05;7.13;;;5.83;;
12816;SDS011;6473;51.552;6.716;2024-01-07T09:57:36;7.20;;;5.80;;
12816;SDS011;6473;51.552;6.716;2024-01-07T10:00:04;9.57;;;6.23;;
12816;SDS011;6473;51.552;6.716;2024-01-07T10:02:37;6.60;;;5.57;;
12816;SDS011;6473;51.552;6.716;2024-01-07T10:05:06;8.23;;;6.17;;
12816;SDS011;6473;51.552;6.716;2024-01-07T10:07:33;7.90;;;5.90;;
12816;SDS011;6473;51.552;6.716;2024-01-07T10:10:11;7.33;;;6.03;;
12816;SDS011;6473;51.552;6.716;2024-01-07T10:12:38;7.93;;;5.30;;
12816;SDS011;6473;51.552;6.716;2024-01-07T10:15:05;6.83;;;5.27;;
12816;SDS011;6473;51.552;6.716;2024-01-07T10:17:33;8.03;;;6.20;;
12816;SDS011;6473;51.552;6.716;2024-01-07T10:20:00;6.07;;;4.70;;
12816;SDS011;6473;51.552;6.716;2024-01-07T10:22:27;6.40;;;5.13;;
12816;SDS011;6473;51.552;6.716;2024-01-07T10:24:55;9.87;;;5.00;;
12816;SDS011;6473;51.552;6.716;2024-01-07T10:27:24;5.10;;;4.60;;
12816;SDS011;6473;51.552;6.716;2024-01-07T10:29:51;7.67;;;5.03;;
12816;SDS011;6473;51.552;6.716;2024-01-07T10:32:20;8.17;;;5.53;;
12816;SDS011;6473;51.552;6.716;2024-01-07T10:34:47;7.00;;;5.23;;
12816;SDS011;6473;51.552;6.716;2024-01-07T10:37:15;8.73;;;5.40;;
12816;SDS011;6473;51.552;6.716;2024-01-07T10:39:42;7.23;;;5.00;;
12816;SDS011;6473;51.552;6.716;2024-01-07T10:42:09;6.23;;;4.80;;
12816;SDS011;6473;51.552;6.716;2024-01-07T10:44:38;7.53;;;5.27;;
12816;SDS011;6473;51.552;6.716;2024-01-07T10:47:06;6.50;;;5.30;;
12816;SDS011;6473;51.552;6.716;2024-01-07T10:49:34;8.40;;;4.70;;
12816;SDS011;6473;51.552;6.716;2024-01-07T10:52:02;7.43;;;4.87;;
12816;SDS011;6473;51.552;6.716;2024-01-07T10:54:30;6.53;;;4.43;;
12816;SDS011;6473;51.552;6.716;2024-01-07T10:56:59;5.77;;;4.53;;
12816;SDS011;6473;51.552;6.716;2024-01-07T10:59:26;5.77;;;4.40;;
12816;SDS011;6473;51.552;6.716;2024-01-07T11:01:55;7.67;;;4.57;;
12816;SDS011;6473;51.552;6.716;2024-01-07T11:04:23;5.27;;;4.57;;
12816;SDS011;6473;51.552;6.716;2024-01-07T11:06:52;6.60;;;4.60;;
12816;SDS011;6473;51.552;6.716;2024-01-07T11:09:23;3.90;;;3.50;;
12816;SDS011;6473;51.552;6.716;2024-01-07T11:11:52;5.00;;;3.97;;
12816;SDS011;6473;51.552;6.716;2024-01-07T11:14:35;4.33;;;3.67;;
12816;SDS011;6473;51.552;6.716;2024-01-07T11:17:05;4.77;;;3.97;;
12816;SDS011;6473;51.552;6.716;2024-01-07T11:19:32;5.67;;;3.83;;
12816;SDS011;6473;51.552;6.716;2024-01-07T11:24:50;3.73;;;3.30;;
12816;SDS011;6473;51.552;6.716;2024-01-07T11:27:17;4.00;;;3.23;;
12816;SDS011;6473;51.552;6.716;2024-01-07T11:29:52;4.73;;;3.23;;
12816;SDS011;6473;51.552;6.716;2024-01-07T11:32:21;4.30;;;3.03;;
12816;SDS011;6473;51.552;6.716;2024-01-07T11:34:48;5.03;;;2.90;;
12816;SDS011;6473;51.552;6.716;2024-01-07T11:37:18;2.73;;;2.40;;
12816;SDS011;6473;51.552;6.716;2024-01-07T11:39:46;3.93;;;2.90;;
12816;SDS011;6473;51.552;6.716;2024-01-07T11:42:13;3.10;;;2.80;;
12816;SDS011;6473;51.552;6.716;2024-01-07T11:44:44;4.83;;;2.97;;
12816;SDS011;6473;51.552;6.716;2024-01-07T11:47:12;3.50;;;2.90;;
12816;SDS011;6473;51.552;6.716;2024-01-07T11:49:41;3.03;;;2.63;;
12816;SDS011;6473;51.552;6.716;2024-01-07T11:52:08;2.80;;;2.60;;
12816;SDS011;6473;51.552;6.716;2024-01-07T11:54:35;3.50;;;2.67;;
12816;SDS011;6473;51.552;6.716;2024-01-07T11:57:03;3.13;;;2.83;;
12816;SDS011;6473;51.552;6.716;2024-01-07T11:59:30;3.87;;;2.57;;
12816;SDS011;6473;51.552;6.716;2024-01-07T12:01:59;3.03;;;2.70;;
12816;SDS011;6473;51.552;6.716;2024-01-07T12:04:26;3.13;;;2.83;;
12816;SDS011;6473;51.552;6.716;2024-01-07T12:06:55;2.77;;;2.50;;
12816;SDS011;6473;51.552;6.716;2024-01-07T12:09:22;3.00;;;2.70;;
12816;SDS011;6473;51.552;6.716;2024-01-07T12:11:49;4.03;;;3.00;;
12816;SDS011;6473;51.552;6.716;2024-01-07T12:14:16;3.67;;;2.43;;
12816;SDS011;6473;51.552;6.716;2024-01-07T12:16:44;3.37;;;2.80;;
12816;SDS011;6473;51.552;6.716;2024-01-07T12:19:11;4.40;;;3.07;;
12816;SDS011;6473;51.552;6.716;2024-01-07T12:21:38;3.67;;;2.73;;
12816;SDS011;6473;51.552;6.716;2024-01-07T12:24:07;4.23;;;2.80;;
12816;SDS011;6473;51.552;6.716;2024-01-07T12:26:34;3.13;;;2.63;;
12816;SDS011;6473;51.552;6.716;2024-01-07T12:29:02;3.77;;;2.43;;
12816;SDS011;6473;51.552;6.716;2024-01-07T12:31:31;2.47;;;2.23;;
12816;SDS011;6473;51.552;6.716;2024-01-07T12:34:02;3.27;;;2.97;;
12816;SDS011;6473;51.552;6.716;2024-01-07T12:36:32;3.40;;;3.10;;
12816;SDS011;6473;51.552;6.716;2024-01-07T12:38:59;4.60;;;2.93;;
12816;SDS011;6473;51.552;6.716;2024-01-07T12:41:28;4.30;;;2.60;;
12816;SDS011;6473;51.552;6.716;2024-01-07T12:43:55;3.17;;;2.77;;
12816;SDS011;6473;51.552;6.716;2024-01-07T12:46:22;3.53;;;2.60;;
12816;SDS011;6473;51.552;6.716;2024-01-07T12:48:49;3.90;;;2.63;;
12816;SDS011;6473;51.552;6.716;2024-01-07T12:51:17;3.27;;;2.50;;
12816;SDS011;6473;51.552;6.716;2024-01-07T12:53:44;2.83;;;2.27;;
12816;SDS011;6473;51.552;6.716;2024-01-07T12:56:11;2.93;;;2.53;;
12816;SDS011;6473;51.552;6.716;2024-01-07T12:58:40;3.73;;;2.70;;
12816;SDS011;6473;51.552;6.716;2024-01-07T13:01:07;3.43;;;2.70;;
12816;SDS011;6473;51.552;6.716;2024-01-07T13:03:35;2.63;;;2.40;;
12816;SDS011;6473;51.552;6.716;2024-01-07T13:06:02;3.17;;;2.63;;
12816;SDS011;6473;51.552;6.716;2024-01-07T13:08:30;3.43;;;2.47;;
12816;SDS011;6473;51.552;6.716;2024-01-07T13:10:58;2.97;;;2.40;;
12816;SDS011;6473;51.552;6.716;2024-01-07T13:13:26;3.07;;;2.50;;
12816;SDS011;6473;51.552;6.716;2024-01-07T13:15:54;3.77;;;2.40;;
12816;SDS011;6473;51.552;6.716;2024-01-07T13:18:22;3.97;;;2.27;;
12816;SDS011;6473;51.552;6.716;2024-01-07T13:20:51;2.37;;;2.00;;
12816;SDS011;6473;51.552;6.716;2024-01-07T13:23:18;3.13;;;2.83;;
12816;SDS011;6473;51.552;6.716;2024-01-07T13:25:45;3.20;;;2.40;;
12816;SDS011;6473;51.552;6.716;2024-01-07T13:28:12;3.00;;;2.20;;
12816;SDS011;6473;51.552;6.716;2024-01-07T13:30:40;2.93;;;2.07;;
12816;SDS011;6473;51.552;6.716;2024-01-07T13:33:08;2.40;;;2.20;;
12816;SDS011;6473;51.552;6.716;2024-01-07T13:35:36;2.50;;;2.20;;
12816;SDS011;6473;51.552;6.716;2024-01-07T13:38:03;2.57;;;2.10;;
12816;SDS011;6473;51.552;6.716;2024-01-07T13:40:30;2.23;;;2.03;;
12816;SDS011;6473;51.552;6.716;2024-01-07T13:42:57;2.37;;;2.07;;
12816;SDS011;6473;51.552;6.716;2024-01-07T13:45:24;2.33;;;2.00;;
12816;SDS011;6473;51.552;6.716;2024-01-07T13:47:52;1.90;;;1.80;;
12816;SDS011;6473;51.552;6.716;2024-01-07T13:50:20;2.30;;;2.00;;
12816;SDS011;6473;51.552;6.716;2024-01-07T13:52:47;2.00;;;1.80;;
12816;SDS011;6473;51.552;6.716;2024-01-07T13:55:15;3.07;;;1.80;;
12816;SDS011;6473;51.552;6.716;2024-01-07T13:57:43;3.37;;;1.73;;
12816;SDS011;6473;51.552;6.716;2024-01-07T14:00:10;3.90;;;2.20;;
12816;SDS011;6473;51.552;6.716;2024-01-07T14:02:43;2.13;;;1.93;;
12816;SDS011;6473;51.552;6.716;2024-01-07T14:05:11;2.80;;;1.70;;
12816;SDS011;6473;51.552;6.716;2024-01-07T14:07:40;2.67;;;2.00;;
12816;SDS011;6473;51.552;6.716;2024-01-07T14:10:07;2.13;;;1.97;;
12816;SDS011;6473;51.552;6.716;2024-01-07T14:12:35;3.73;;;1.77;;
12816;SDS011;6473;51.552;6.716;2024-01-07T14:15:02;3.60;;;1.90;;
12816;SDS011;6473;51.552;6.716;2024-01-07T14:17:29;1.90;;;1.70;;
12816;SDS011;6473;51.552;6.716;2024-01-07T14:19:57;2.57;;;2.03;;
12816;SDS011;6473;51.552;6.716;2024-01-07T14:22:24;2.43;;;2.10;;
12816;SDS011;6473;51.552;6.716;2024-01-07T14:24:52;1.90;;;1.70;;
12816;SDS011;6473;51.552;6.716;2024-01-07T14:27:19;1.77;;;1.60;;
12816;SDS011;6473;51.552;6.716;2024-01-07T14:29:47;2.60;;;1.90;;
12816;SDS011;6473;51.552;6.716;2024-01-07T14:32:14;1.57;;;1.47;;
12816;SDS011;6473;51.552;6.716;2024-01-07T14:34:41;2.00;;;1.90;;
12816;SDS011;6473;51.552;6.716;2024-01-07T14:37:09;2.23;;;1.70;;
12816;SDS011;6473;51.552;6.716;2024-01-07T14:39:36;2.30;;;1.90;;
12816;SDS011;6473;51.552;6.716;2024-01-07T14:42:06;3.50;;;1.90;;
12816;SDS011;6473;51.552;6.716;2024-01-07T14:44:34;2.17;;;1.83;;
12816;SDS011;6473;51.552;6.716;2024-01-07T14:47:01;1.67;;;1.57;;
12816;SDS011;6473;51.552;6.716;2024-01-07T14:49:28;3.03;;;1.80;;
12816;SDS011;6473;51.552;6.716;2024-01-07T14:51:56;3.33;;;2.10;;
12816;SDS011;6473;51.552;6.716;2024-01-07T14:54:23;2.00;;;1.80;;
12816;SDS011;6473;51.552;6.716;2024-01-07T14:56:50;2.63;;;1.67;;
12816;SDS011;6473;51.552;6.716;2024-01-07T14:59:19;2.77;;;2.13;;